createdAt,value
2022-12-29T00:01:04.286Z,50.53
2022-12-29T00:03:31.810Z,36.78
2022-12-29T00:05:59.497Z,38.40
2022-12-29T00:08:40.426Z,39.03
2022-12-29T00:11:13.766Z,32.00
2022-12-29T00:14:00.565Z,38.95
2022-12-29T00:16:29.063Z,41.10
2022-12-29T00:18:56.706Z,35.60
2022-12-29T00:21:44.387Z,45.42
2022-12-29T00:24:28.417Z,38.33
2022-12-29T00:27:23.678Z,29.02
2022-12-29T00:30:09.889Z,38.95
2022-12-29T00:32:56.474Z,35.17
2022-12-29T00:35:36.980Z,43.58
2022-12-29T00:38:26.348Z,35.10
2022-12-29T00:41:12.273Z,41.47
2022-12-29T00:43:58.117Z,39.63
2022-12-29T00:46:25.604Z,48.67
2022-12-29T00:49:11.513Z,41.65
2022-12-29T00:51:38.968Z,44.63
2022-12-29T00:54:06.483Z,47.10
2022-12-29T00:59:07.036Z,37.60
2022-12-29T01:01:36.596Z,44.83
2022-12-29T01:04:05.526Z,43.53
2022-12-29T01:06:34.592Z,57.15
2022-12-29T01:09:20.614Z,35.08
2022-12-29T01:11:48.757Z,40.28
2022-12-29T01:14:17.110Z,40.88
2022-12-29T01:16:46.174Z,36.33
2022-12-29T01:21:41.724Z,32.83
2022-12-29T01:24:09.644Z,38.17
2022-12-29T01:26:37.039Z,38.05
2022-12-29T01:29:04.549Z,37.63
2022-12-29T01:31:32.408Z,39.25
2022-12-29T01:34:00.120Z,40.92
2022-12-29T01:36:28.092Z,44.78
2022-12-29T01:38:55.506Z,42.58
2022-12-29T01:41:22.994Z,47.33
2022-12-29T01:43:53.605Z,46.63
2022-12-29T01:46:27.992Z,46.42
2022-12-29T01:49:17.967Z,45.67
2022-12-29T01:51:49.004Z,47.42
2022-12-29T01:54:27.608Z,39.33
2022-12-29T01:56:58.516Z,48.25
2022-12-29T01:59:36.893Z,37.13
2022-12-29T02:02:05.464Z,39.78
2022-12-29T02:04:34.376Z,35.17
2022-12-29T02:07:11.384Z,34.33
2022-12-29T02:09:39.009Z,51.45
2022-12-29T02:12:07.073Z,42.40
2022-12-29T02:14:35.159Z,42.35
2022-12-29T02:17:02.660Z,51.35
2022-12-29T02:19:54.239Z,36.20
2022-12-29T02:22:47.190Z,40.97
2022-12-29T02:25:20.483Z,40.30
2022-12-29T02:28:18.672Z,40.78
2022-12-29T02:31:06.250Z,50.00
2022-12-29T02:33:36.450Z,41.50
2022-12-29T02:36:40.471Z,52.97
2022-12-29T02:39:55.352Z,46.88
2022-12-29T02:42:25.553Z,44.53
2022-12-29T02:45:06.695Z,40.53
2022-12-29T02:48:02.314Z,39.72
2022-12-29T02:50:44.587Z,42.72
2022-12-29T02:53:18.455Z,48.40
2022-12-29T02:55:50.323Z,51.05
2022-12-29T02:58:23.493Z,46.13
2022-12-29T03:01:11.998Z,41.17
2022-12-29T03:04:02.163Z,48.28
2022-12-29T03:06:54.117Z,53.80
2022-12-29T03:09:36.709Z,52.42
2022-12-29T03:12:16.251Z,50.35
2022-12-29T03:15:01.990Z,47.28
2022-12-29T03:17:44.484Z,41.85
2022-12-29T03:20:20.066Z,43.22
2022-12-29T03:22:53.021Z,43.08
2022-12-29T03:25:34.820Z,46.88
2022-12-29T03:28:11.625Z,50.88
2022-12-29T03:30:46.016Z,53.58
2022-12-29T03:33:26.298Z,49.53
2022-12-29T03:36:03.855Z,45.17
2022-12-29T03:38:37.047Z,42.30
2022-12-29T03:41:08.318Z,39.65
2022-12-29T03:43:36.216Z,45.05
2022-12-29T03:46:03.856Z,46.45
2022-12-29T03:48:31.611Z,50.13
2022-12-29T03:50:59.285Z,50.22
2022-12-29T03:53:26.787Z,41.17
2022-12-29T03:55:54.460Z,45.92
2022-12-29T03:58:23.407Z,40.72
2022-12-29T04:01:26.238Z,44.70
2022-12-29T04:03:53.945Z,51.40
2022-12-29T04:06:21.579Z,48.70
2022-12-29T04:09:01.613Z,46.60
2022-12-29T04:11:33.425Z,54.85
2022-12-29T04:14:04.442Z,46.20
2022-12-29T04:16:36.545Z,60.58
2022-12-29T04:19:09.024Z,47.60
2022-12-29T04:21:37.972Z,51.90
2022-12-29T04:24:07.696Z,51.85
2022-12-29T04:26:39.951Z,49.33
2022-12-29T04:29:21.343Z,43.95
2022-12-29T04:34:26.864Z,37.55
2022-12-29T04:36:54.879Z,53.88
2022-12-29T04:39:22.622Z,49.33
2022-12-29T04:41:50.215Z,54.30
2022-12-29T04:44:21.262Z,54.97
2022-12-29T04:47:10.336Z,54.60
2022-12-29T04:49:50.591Z,59.72
2022-12-29T04:52:40.548Z,56.33
2022-12-29T04:55:11.172Z,55.83
2022-12-29T04:57:38.776Z,61.15
2022-12-29T05:00:09.791Z,40.20
2022-12-29T05:02:38.562Z,50.00
2022-12-29T05:05:07.143Z,56.20
2022-12-29T05:07:39.449Z,57.17
2022-12-29T05:10:08.496Z,62.13
2022-12-29T05:12:38.180Z,45.95
2022-12-29T05:15:08.260Z,47.30
2022-12-29T05:17:36.279Z,51.65
2022-12-29T05:20:06.234Z,41.60
2022-12-29T05:22:34.686Z,58.42
2022-12-29T05:25:02.376Z,53.83
2022-12-29T05:27:31.062Z,49.53
2022-12-29T05:30:06.094Z,43.20
2022-12-29T05:32:33.653Z,54.08
2022-12-29T05:35:01.185Z,35.83
2022-12-29T05:37:30.239Z,43.35
2022-12-29T05:39:57.768Z,67.72
2022-12-29T05:42:25.264Z,48.78
2022-12-29T05:45:17.816Z,39.83
2022-12-29T05:47:55.122Z,45.13
2022-12-29T05:50:42.513Z,48.83
2022-12-29T05:53:12.800Z,41.15
2022-12-29T05:55:46.577Z,44.20
2022-12-29T05:58:17.751Z,41.60
2022-12-29T06:00:45.630Z,38.90
2022-12-29T06:05:40.886Z,35.38
2022-12-29T06:08:08.492Z,44.13
2022-12-29T06:10:36.541Z,24.77
2022-12-29T06:13:06.948Z,33.80
2022-12-29T06:15:37.739Z,29.08
2022-12-29T06:18:08.685Z,23.73
2022-12-29T06:20:36.260Z,23.88
2022-12-29T06:23:06.344Z,24.95
2022-12-29T06:25:34.699Z,22.50
2022-12-29T06:28:03.929Z,29.88
2022-12-29T06:30:31.589Z,18.50
2022-12-29T06:33:00.479Z,17.40
2022-12-29T06:37:55.697Z,22.65
2022-12-29T06:40:24.051Z,21.02
2022-12-29T06:43:10.020Z,20.30
2022-12-29T06:45:53.127Z,22.73
2022-12-29T06:48:20.752Z,20.10
2022-12-29T06:50:48.216Z,12.93
2022-12-29T06:53:15.677Z,10.05
2022-12-29T06:55:43.646Z,14.30
2022-12-29T06:58:11.103Z,12.52
2022-12-29T07:00:38.613Z,11.35
2022-12-29T07:03:06.267Z,10.77
2022-12-29T07:05:33.889Z,11.77
2022-12-29T07:08:01.383Z,13.82
2022-12-29T07:10:29.082Z,15.63
2022-12-29T07:12:56.534Z,12.13
2022-12-29T07:15:24.131Z,15.70
2022-12-29T07:17:51.661Z,13.13
2022-12-29T07:20:24.759Z,10.07
2022-12-29T07:22:54.361Z,13.73
2022-12-29T07:25:22.115Z,8.10
2022-12-29T07:27:50.182Z,11.18
2022-12-29T07:30:17.696Z,12.90
2022-12-29T07:32:45.109Z,8.48
2022-12-29T07:35:12.535Z,13.30
2022-12-29T07:37:39.985Z,12.82
2022-12-29T07:40:08.229Z,11.77
2022-12-29T07:42:35.665Z,14.23
2022-12-29T07:45:03.550Z,10.77
2022-12-29T07:47:50.288Z,8.32
2022-12-29T07:50:17.791Z,10.82
2022-12-29T07:52:45.797Z,8.40
2022-12-29T07:55:13.247Z,10.45
2022-12-29T07:57:40.757Z,7.60
2022-12-29T08:00:08.885Z,12.48
2022-12-29T08:02:39.643Z,10.88
2022-12-29T08:05:07.572Z,13.30
2022-12-29T08:07:34.987Z,8.95
2022-12-29T08:10:02.532Z,14.23
2022-12-29T08:12:30.083Z,9.63
2022-12-29T08:14:57.657Z,9.35
2022-12-29T08:17:25.055Z,9.73
2022-12-29T08:19:52.516Z,14.75
2022-12-29T08:22:20.148Z,10.75
2022-12-29T08:24:47.708Z,6.55
2022-12-29T08:27:20.391Z,9.10
2022-12-29T08:29:49.592Z,8.23
2022-12-29T08:32:17.992Z,9.98
2022-12-29T08:34:45.732Z,8.93
2022-12-29T08:37:13.336Z,8.43
2022-12-29T08:39:40.781Z,6.50
2022-12-29T08:42:08.225Z,10.32
2022-12-29T08:44:35.682Z,6.13
2022-12-29T08:47:03.190Z,8.82
2022-12-29T08:49:30.689Z,12.95
2022-12-29T08:51:58.295Z,6.30
2022-12-29T08:54:26.007Z,15.38
2022-12-29T08:56:54.661Z,9.88
2022-12-29T08:59:25.561Z,7.45
2022-12-29T09:04:21.231Z,10.35
2022-12-29T09:06:48.896Z,12.35
2022-12-29T09:09:16.971Z,11.18
2022-12-29T09:11:44.590Z,8.70
2022-12-29T09:14:12.430Z,8.50
2022-12-29T09:16:59.568Z,13.48
2022-12-29T09:19:27.025Z,8.77
2022-12-29T09:21:54.443Z,12.30
2022-12-29T09:24:21.919Z,12.50
2022-12-29T09:26:49.347Z,10.82
2022-12-29T09:29:16.851Z,9.73
2022-12-29T09:31:44.313Z,14.63
2022-12-29T09:34:11.858Z,12.73
2022-12-29T09:36:39.254Z,16.58
2022-12-29T09:39:06.678Z,12.38
2022-12-29T09:41:57.583Z,14.80
2022-12-29T09:44:32.822Z,11.07
2022-12-29T09:47:01.807Z,10.73
2022-12-29T09:49:48.711Z,11.40
2022-12-29T09:52:48.312Z,13.77
2022-12-29T09:55:19.956Z,13.25
2022-12-29T09:57:50.497Z,12.63
2022-12-29T10:00:21.258Z,10.68
2022-12-29T10:02:54.377Z,9.82
2022-12-29T10:05:44.128Z,11.50
2022-12-29T10:08:23.636Z,13.82
2022-12-29T10:11:05.668Z,13.13
2022-12-29T10:13:54.634Z,10.50
2022-12-29T10:16:48.594Z,9.73
2022-12-29T10:19:21.927Z,9.35
2022-12-29T10:22:01.787Z,12.07
2022-12-29T10:24:31.931Z,11.32
2022-12-29T10:27:00.378Z,8.90
2022-12-29T10:29:38.356Z,11.55
2022-12-29T10:32:11.372Z,11.30
2022-12-29T10:34:45.139Z,8.85
2022-12-29T10:37:18.817Z,9.98
2022-12-29T10:39:50.967Z,12.55
2022-12-29T10:42:34.173Z,11.57
2022-12-29T10:45:01.911Z,9.13
2022-12-29T10:47:35.910Z,8.02
2022-12-29T10:50:04.050Z,6.53
2022-12-29T10:55:18.426Z,5.43
2022-12-29T10:57:47.119Z,7.82
2022-12-29T11:00:21.503Z,8.65
2022-12-29T11:03:02.908Z,8.90
2022-12-29T11:05:48.729Z,6.72
2022-12-29T11:08:37.525Z,9.35
2022-12-29T11:11:07.514Z,6.25
2022-12-29T11:13:59.479Z,7.40
2022-12-29T11:16:35.732Z,7.00
2022-12-29T11:19:03.837Z,12.15
2022-12-29T11:21:34.012Z,8.13
2022-12-29T11:24:26.781Z,6.75
2022-12-29T11:26:59.765Z,10.63
2022-12-29T11:29:30.146Z,10.80
2022-12-29T11:32:00.257Z,8.15
2022-12-29T11:34:36.959Z,14.05
2022-12-29T11:37:12.798Z,11.52
2022-12-29T11:39:51.478Z,7.60
2022-12-29T11:42:22.676Z,10.05
2022-12-29T11:44:52.415Z,7.82
2022-12-29T11:47:36.427Z,10.10
2022-12-29T11:50:07.734Z,9.88
2022-12-29T11:52:40.462Z,8.50
2022-12-29T11:55:23.023Z,8.45
2022-12-29T11:57:53.338Z,9.35
2022-12-29T12:00:24.633Z,11.48
2022-12-29T12:02:58.261Z,9.73
2022-12-29T12:05:31.396Z,11.88
2022-12-29T12:08:24.285Z,19.48
2022-12-29T12:10:59.776Z,12.93
2022-12-29T12:13:50.623Z,10.75
2022-12-29T12:16:23.444Z,13.18
2022-12-29T12:19:05.317Z,16.40
2022-12-29T12:21:45.978Z,15.15
2022-12-29T12:24:22.612Z,14.77
2022-12-29T12:27:01.854Z,14.73
2022-12-29T12:29:57.420Z,14.77
2022-12-29T12:32:45.154Z,20.85
2022-12-29T12:35:24.240Z,21.00
2022-12-29T12:38:11.370Z,15.30
2022-12-29T12:40:47.727Z,16.87
2022-12-29T12:43:38.879Z,22.05
2022-12-29T12:46:32.685Z,16.80
2022-12-29T12:49:22.016Z,20.08
2022-12-29T12:52:05.608Z,19.83
2022-12-29T12:54:33.208Z,16.45
2022-12-29T12:57:06.847Z,18.45
2022-12-29T13:00:01.863Z,21.20
2022-12-29T13:02:45.536Z,18.98
2022-12-29T13:05:26.518Z,17.38
2022-12-29T13:08:16.079Z,19.23
2022-12-29T13:11:07.071Z,19.65
2022-12-29T13:14:07.599Z,23.38
2022-12-29T13:17:02.821Z,14.27
2022-12-29T13:19:37.213Z,19.23
2022-12-29T13:22:44.926Z,18.02
2022-12-29T13:25:50.955Z,21.58
2022-12-29T13:28:44.048Z,14.00
2022-12-29T13:31:21.992Z,15.68
2022-12-29T13:37:05.202Z,19.52
2022-12-29T13:39:40.333Z,21.15
2022-12-29T13:42:08.579Z,19.48
2022-12-29T13:47:34.169Z,13.65
2022-12-29T13:50:04.475Z,19.88
2022-12-29T13:52:50.867Z,18.17
2022-12-29T13:55:38.401Z,25.27
2022-12-29T13:58:50.019Z,20.92
2022-12-29T14:01:35.383Z,16.55
2022-12-29T14:04:10.638Z,20.02
2022-12-29T14:06:41.465Z,16.27
2022-12-29T14:09:39.413Z,17.45
2022-12-29T14:12:37.681Z,18.42
2022-12-29T14:15:21.805Z,24.00
2022-12-29T14:18:13.197Z,14.52
2022-12-29T14:20:54.051Z,18.13
2022-12-29T14:23:43.368Z,20.85
2022-12-29T14:26:32.917Z,23.10
2022-12-29T14:29:25.053Z,11.63
2022-12-29T14:31:53.577Z,18.08
2022-12-29T14:34:21.074Z,21.25
2022-12-29T14:36:59.361Z,16.00
2022-12-29T14:39:47.215Z,20.85
2022-12-29T14:42:20.405Z,14.35
2022-12-29T14:45:06.301Z,18.70
2022-12-29T14:47:39.434Z,12.65
2022-12-29T14:50:35.135Z,18.92
2022-12-29T14:53:06.124Z,16.98
2022-12-29T14:55:43.428Z,13.45
2022-12-29T14:58:32.050Z,16.60
2022-12-29T15:01:01.309Z,17.10
2022-12-29T15:03:46.185Z,18.00
2022-12-29T15:06:19.777Z,15.32
2022-12-29T15:08:55.944Z,16.65
2022-12-29T15:11:45.011Z,17.73
2022-12-29T15:14:35.405Z,16.80
2022-12-29T15:17:11.819Z,22.60
2022-12-29T15:19:39.602Z,20.60
2022-12-29T15:22:07.313Z,19.88
2022-12-29T15:24:40.940Z,18.08
2022-12-29T15:27:20.307Z,15.23
2022-12-29T15:29:48.657Z,21.50
2022-12-29T15:32:16.228Z,16.23
2022-12-29T15:34:48.828Z,17.75
2022-12-29T15:37:26.436Z,13.82
2022-12-29T15:39:55.285Z,22.27
2022-12-29T15:42:57.633Z,17.13
2022-12-29T15:45:33.079Z,19.05
2022-12-29T15:48:00.992Z,14.23
2022-12-29T15:50:34.756Z,18.67
2022-12-29T15:53:03.441Z,20.58
2022-12-29T15:55:37.134Z,18.92
2022-12-29T15:58:17.504Z,25.98
2022-12-29T16:00:50.064Z,19.02
2022-12-29T16:03:18.285Z,11.80
2022-12-29T16:06:07.958Z,16.55
2022-12-29T16:08:39.051Z,17.48
2022-12-29T16:11:37.205Z,19.25
2022-12-29T16:14:20.499Z,21.52
2022-12-29T16:16:49.611Z,18.60
2022-12-29T16:19:28.285Z,17.88
2022-12-29T16:21:56.156Z,17.17
2022-12-29T16:24:27.084Z,21.13
2022-12-29T16:27:28.432Z,14.65
2022-12-29T16:29:56.468Z,19.02
2022-12-29T16:32:28.277Z,21.33
2022-12-29T16:35:12.412Z,20.33
2022-12-29T16:37:40.497Z,25.42
2022-12-29T16:40:23.200Z,16.77
2022-12-29T16:42:52.515Z,22.10
2022-12-29T16:45:20.203Z,17.83
2022-12-29T16:48:08.595Z,20.77
2022-12-29T16:50:41.473Z,29.65
2022-12-29T16:53:33.197Z,20.00
2022-12-29T16:56:08.632Z,18.08
2022-12-29T16:58:36.385Z,25.35
2022-12-29T17:01:07.232Z,24.75
2022-12-29T17:03:41.085Z,16.52
2022-12-29T17:06:19.393Z,22.38
2022-12-29T17:08:48.378Z,23.65
2022-12-29T17:11:42.271Z,19.92
2022-12-29T17:14:41.163Z,20.35
2022-12-29T17:17:22.359Z,17.15
2022-12-29T17:19:56.374Z,20.48
2022-12-29T17:22:27.011Z,21.50
2022-12-29T17:24:56.653Z,16.95
2022-12-29T17:27:30.371Z,22.63
2022-12-29T17:30:03.401Z,14.30
2022-12-29T17:32:31.356Z,21.88
2022-12-29T17:34:59.068Z,16.88
2022-12-29T17:37:32.791Z,19.13
2022-12-29T17:40:00.521Z,15.93
2022-12-29T17:42:27.993Z,14.07
2022-12-29T17:44:55.985Z,17.83
2022-12-29T17:47:23.996Z,15.30
2022-12-29T17:49:51.389Z,19.50
2022-12-29T17:52:19.668Z,20.23
2022-12-29T17:54:53.368Z,21.60
2022-12-29T17:57:21.765Z,19.98
2022-12-29T17:59:49.295Z,19.65
2022-12-29T18:02:24.927Z,16.38
2022-12-29T18:04:54.734Z,12.98
2022-12-29T18:07:23.004Z,19.13
2022-12-29T18:09:50.574Z,13.90
2022-12-29T18:12:31.450Z,17.77
2022-12-29T18:15:04.261Z,11.70
2022-12-29T18:17:31.819Z,23.13
2022-12-29T18:19:59.277Z,18.15
2022-12-29T18:22:29.002Z,20.58
2022-12-29T18:24:56.715Z,12.93
2022-12-29T18:27:24.298Z,15.93
2022-12-29T18:29:51.754Z,22.60
2022-12-29T18:32:19.433Z,23.75
2022-12-29T18:34:48.868Z,18.00
2022-12-29T18:37:16.319Z,17.60
2022-12-29T18:39:43.795Z,24.08
2022-12-29T18:42:17.507Z,17.70
2022-12-29T18:44:45.196Z,19.27
2022-12-29T18:47:12.742Z,16.40
2022-12-29T18:49:40.329Z,19.58
2022-12-29T18:52:13.567Z,21.30
2022-12-29T18:54:41.373Z,15.55
2022-12-29T18:57:08.788Z,13.00
2022-12-29T18:59:36.606Z,22.83
2022-12-29T19:02:04.095Z,21.42
2022-12-29T19:04:31.614Z,20.98
2022-12-29T19:07:00.473Z,21.70
2022-12-29T19:09:27.980Z,19.40
2022-12-29T19:11:55.384Z,21.02
2022-12-29T19:14:22.926Z,26.98
2022-12-29T19:16:50.392Z,16.88
2022-12-29T19:19:17.886Z,15.60
2022-12-29T19:21:45.511Z,24.23
2022-12-29T19:24:13.143Z,27.35
2022-12-29T19:26:41.358Z,19.73
2022-12-29T19:31:39.921Z,21.70
2022-12-29T19:34:07.467Z,19.75
2022-12-29T19:36:35.272Z,19.65
2022-12-29T19:39:02.805Z,16.83
2022-12-29T19:41:30.350Z,27.55
2022-12-29T19:43:57.764Z,20.27
2022-12-29T19:46:25.699Z,27.58
2022-12-29T19:48:58.940Z,23.75
2022-12-29T19:51:27.057Z,30.55
2022-12-29T19:53:55.323Z,28.15
2022-12-29T19:56:22.934Z,20.70
2022-12-29T19:58:50.834Z,20.35
2022-12-29T20:01:21.630Z,22.65
2022-12-29T20:03:49.821Z,27.15
2022-12-29T20:06:18.431Z,25.52
2022-12-29T20:08:45.930Z,20.50
2022-12-29T20:11:18.217Z,26.48
2022-12-29T20:13:46.556Z,21.60
2022-12-29T20:16:17.922Z,24.30
2022-12-29T20:18:45.832Z,20.23
2022-12-29T20:21:19.341Z,27.50
2022-12-29T20:23:47.345Z,23.88
2022-12-29T20:26:17.411Z,22.98
2022-12-29T20:28:45.351Z,24.75
2022-12-29T20:31:31.224Z,21.08
2022-12-29T20:33:59.024Z,24.08
2022-12-29T20:36:29.176Z,27.33
2022-12-29T20:38:58.545Z,20.33
2022-12-29T20:41:26.125Z,28.45
2022-12-29T20:43:54.483Z,25.65
2022-12-29T20:46:26.701Z,21.67
2022-12-29T20:48:58.740Z,23.92
2022-12-29T20:51:27.333Z,31.63
2022-12-29T20:53:54.924Z,29.90
2022-12-29T20:56:26.166Z,24.10
2022-12-29T21:01:42.895Z,16.23
2022-12-29T21:04:12.978Z,38.58
2022-12-29T21:06:40.447Z,22.42
2022-12-29T21:09:08.038Z,27.13
2022-12-29T21:11:35.735Z,36.28
2022-12-29T21:14:03.300Z,25.83
2022-12-29T21:16:30.896Z,23.50
2022-12-29T21:18:58.454Z,24.25
2022-12-29T21:21:26.508Z,22.60
2022-12-29T21:26:24.151Z,29.63
2022-12-29T21:28:54.991Z,23.00
2022-12-29T21:31:36.811Z,24.90
2022-12-29T21:34:05.720Z,33.58
2022-12-29T21:36:34.149Z,26.17
2022-12-29T21:39:04.696Z,26.40
2022-12-29T21:44:18.094Z,26.40
2022-12-29T21:46:48.317Z,25.50
2022-12-29T21:49:16.425Z,29.05
2022-12-29T21:54:47.773Z,22.90
2022-12-29T21:57:36.700Z,23.05
2022-12-29T22:00:26.234Z,31.27
2022-12-29T22:03:22.140Z,19.73
2022-12-29T22:06:09.640Z,23.25
2022-12-29T22:08:57.001Z,21.50
2022-12-29T22:11:45.227Z,25.35
2022-12-29T22:14:13.035Z,28.85
2022-12-29T22:16:40.742Z,20.48
2022-12-29T22:19:08.822Z,31.88
2022-12-29T22:24:04.038Z,17.25
2022-12-29T22:26:31.547Z,21.20
2022-12-29T22:28:59.087Z,26.00
2022-12-29T22:31:29.377Z,29.15
2022-12-29T22:33:59.196Z,20.02
2022-12-29T22:36:27.973Z,27.10
2022-12-29T22:38:55.526Z,25.33
2022-12-29T22:41:23.056Z,27.48
2022-12-29T22:43:50.740Z,35.70
2022-12-29T22:46:18.475Z,17.85
2022-12-29T22:48:46.350Z,29.27
2022-12-29T22:51:14.004Z,27.35
2022-12-29T22:53:41.536Z,34.92
2022-12-29T22:56:12.077Z,27.17
2022-12-29T22:58:41.751Z,35.10
2022-12-29T23:01:10.922Z,32.20
2022-12-29T23:03:38.818Z,31.10
2022-12-29T23:06:08.799Z,33.20
2022-12-29T23:08:38.197Z,31.05
2022-12-29T23:11:08.012Z,31.50
2022-12-29T23:13:35.790Z,36.13
2022-12-29T23:16:03.407Z,26.48
2022-12-29T23:18:30.959Z,33.70
2022-12-29T23:20:58.441Z,31.30
2022-12-29T23:23:48.814Z,27.30
2022-12-29T23:26:22.248Z,34.50
2022-12-29T23:28:53.412Z,35.83
2022-12-29T23:31:25.187Z,35.88
2022-12-29T23:33:53.198Z,40.33
2022-12-29T23:36:21.249Z,32.85
2022-12-29T23:38:48.740Z,37.45
2022-12-29T23:41:16.220Z,28.67
2022-12-29T23:43:43.607Z,26.10
2022-12-29T23:46:20.626Z,31.13
2022-12-29T23:48:48.369Z,32.40
2022-12-29T23:51:16.678Z,29.50
2022-12-29T23:53:45.489Z,26.27
2022-12-29T23:56:19.334Z,32.08
2022-12-29T23:58:47.221Z,38.83
